createdAt,value
2023-01-19T00:00:15.431Z,1.60
2023-01-19T00:02:51.145Z,1.50
2023-01-19T00:05:22.990Z,1.40
2023-01-19T00:07:54.827Z,1.30
2023-01-19T00:10:26.655Z,1.20
2023-01-19T00:12:58.791Z,1.30
2023-01-19T00:15:30.749Z,1.10
2023-01-19T00:18:05.215Z,1.00
2023-01-19T00:20:37.018Z,1.00
2023-01-19T00:23:08.967Z,1.00
2023-01-19T00:25:42.499Z,0.90
2023-01-19T00:28:21.311Z,1.00
2023-01-19T00:30:53.104Z,0.90
2023-01-19T00:33:27.534Z,0.90
2023-01-19T00:35:59.343Z,0.80
2023-01-19T00:38:31.180Z,0.70
2023-01-19T00:41:02.980Z,0.60
2023-01-19T00:43:34.801Z,0.30
2023-01-19T00:46:09.292Z,0.50
2023-01-19T00:48:44.970Z,0.30
2023-01-19T00:53:48.830Z,0.20
2023-01-19T00:56:20.596Z,0.20
2023-01-19T00:58:52.318Z,0.20
2023-01-19T01:01:45.198Z,0.10
2023-01-19T01:04:18.534Z,0.10
2023-01-19T01:06:53.113Z,0.10
2023-01-19T01:09:24.924Z,0.10
2023-01-19T01:24:44.025Z,-0.10
2023-01-19T01:27:15.782Z,0.20
2023-01-19T01:29:47.716Z,0.20
2023-01-19T01:32:19.492Z,0.20
2023-01-19T01:34:51.285Z,0.30
2023-01-19T01:37:23.103Z,0.30
2023-01-19T01:39:59.583Z,0.30
2023-01-19T01:42:31.941Z,0.30
2023-01-19T01:45:06.256Z,0.30
2023-01-19T01:47:40.744Z,0.30
2023-01-19T01:50:14.359Z,0.30
2023-01-19T01:53:06.898Z,0.30
2023-01-19T01:55:45.424Z,0.40
2023-01-19T01:58:17.254Z,0.40
2023-01-19T02:01:07.627Z,0.30
2023-01-19T02:03:42.530Z,0.30
2023-01-19T02:06:14.819Z,0.30
2023-01-19T02:09:06.932Z,0.30
2023-01-19T02:12:00.574Z,0.30
2023-01-19T02:17:09.170Z,-0.10
2023-01-19T02:19:41.875Z,0.10
2023-01-19T02:32:33.921Z,-0.20
2023-01-19T02:35:06.375Z,-0.20
2023-01-19T02:45:19.749Z,-0.20
2023-01-19T02:47:54.392Z,-0.20
2023-01-19T02:50:42.082Z,-0.30
2023-01-19T02:53:21.561Z,-0.40
2023-01-19T02:55:55.698Z,-0.40
2023-01-19T02:58:32.580Z,-0.50
2023-01-19T03:01:09.770Z,-0.50
2023-01-19T03:03:50.064Z,-0.50
2023-01-19T03:06:28.699Z,-0.70
2023-01-19T03:09:04.412Z,-0.80
2023-01-19T03:19:18.867Z,-1.00
2023-01-19T03:21:53.846Z,-0.70
2023-01-19T03:24:28.343Z,-0.70
2023-01-19T03:29:37.164Z,-0.90
2023-01-19T03:32:11.405Z,-0.70
2023-01-19T03:34:47.087Z,-0.70
2023-01-19T03:37:19.843Z,-0.80
2023-01-19T03:39:51.844Z,-0.80
2023-01-19T03:45:00.161Z,-1.00
2023-01-19T03:47:32.084Z,-0.90
2023-01-19T03:50:09.235Z,-0.90
2023-01-19T03:52:41.152Z,-1.00
2023-01-19T04:00:20.788Z,-1.10
2023-01-19T04:02:52.759Z,-1.10
2023-01-19T04:05:27.200Z,-1.10
2023-01-19T04:15:39.849Z,-1.40
2023-01-19T04:18:11.912Z,-1.20
2023-01-19T04:20:46.268Z,-1.20
2023-01-19T04:23:18.017Z,-1.20
2023-01-19T04:25:49.784Z,-1.30
2023-01-19T04:28:21.553Z,-1.30
2023-01-19T04:30:53.479Z,-1.30
2023-01-19T04:33:26.633Z,-1.30
2023-01-19T04:36:01.720Z,-1.30
2023-01-19T04:38:33.616Z,-1.40
2023-01-19T04:41:05.422Z,-1.40
2023-01-19T04:43:37.149Z,-1.40
2023-01-19T04:51:18.021Z,-1.50
2023-01-19T04:53:49.782Z,-1.30
2023-01-19T04:56:21.550Z,-1.30
2023-01-19T04:58:53.323Z,-1.30
2023-01-19T05:01:25.278Z,-1.30
2023-01-19T05:03:58.858Z,-1.30
2023-01-19T05:06:33.471Z,-1.30
2023-01-19T05:09:05.618Z,-1.30
2023-01-19T05:11:37.451Z,-1.30
2023-01-19T05:14:09.913Z,-1.30
2023-01-19T05:47:25.521Z,-1.30
2023-01-19T05:49:57.360Z,-1.20
2023-01-19T05:52:29.178Z,-1.20
2023-01-19T05:55:00.970Z,-1.20
2023-01-19T05:57:32.787Z,-1.20
2023-01-19T06:00:05.404Z,-1.10
2023-01-19T06:02:39.914Z,-1.10
2023-01-19T06:05:11.725Z,-1.00
2023-01-19T06:07:43.498Z,-1.00
2023-01-19T06:10:15.809Z,-0.90
2023-01-19T06:12:47.569Z,-0.90
2023-01-19T06:15:19.427Z,-0.80
2023-01-19T06:17:53.835Z,-0.80
2023-01-19T06:20:25.876Z,-0.70
2023-01-19T06:22:57.785Z,-0.70
2023-01-19T06:25:29.651Z,-0.60
2023-01-19T06:28:01.419Z,-0.60
2023-01-19T06:56:14.060Z,-0.50
2023-01-19T06:58:46.813Z,-0.50
2023-01-19T07:14:09.119Z,-1.00
2023-01-19T07:57:43.619Z,-0.70
2023-01-19T08:00:15.978Z,-0.50
2023-01-19T08:02:49.937Z,-0.50
2023-01-19T08:05:21.846Z,-0.50
2023-01-19T08:07:54.255Z,-0.50
2023-01-19T08:10:26.956Z,-0.50
2023-01-19T08:13:01.648Z,-0.40
2023-01-19T08:15:33.818Z,-0.30
2023-01-19T08:18:06.393Z,-0.30
2023-01-19T08:20:38.301Z,-0.20
2023-01-19T08:23:10.652Z,-0.20
2023-01-19T08:25:44.531Z,-0.10
2023-01-19T08:28:19.113Z,0.00
2023-01-19T08:30:54.628Z,0.00
2023-01-19T08:51:35.189Z,0.30
2023-01-19T08:54:07.016Z,0.50
2023-01-19T09:27:20.035Z,0.60
2023-01-19T09:29:54.439Z,0.80
2023-01-19T10:08:35.960Z,1.70
2023-01-19T10:11:15.903Z,1.90
2023-01-19T10:13:49.466Z,2.00
2023-01-19T10:16:26.599Z,2.00
2023-01-19T10:19:00.758Z,2.10
2023-01-19T10:21:34.625Z,2.10
2023-01-19T10:24:14.675Z,2.20
2023-01-19T10:26:48.502Z,2.20
2023-01-19T10:29:22.350Z,2.30
2023-01-19T10:31:59.175Z,2.30
2023-01-19T10:34:30.977Z,2.40
2023-01-19T10:37:04.480Z,2.50
2023-01-19T10:39:39.196Z,2.50
2023-01-19T10:42:12.846Z,2.50
2023-01-19T10:44:45.811Z,2.60
2023-01-19T10:47:18.288Z,2.60
2023-01-19T10:49:50.416Z,2.70
2023-01-19T10:52:28.802Z,2.70
2023-01-19T10:55:04.559Z,2.80
2023-01-19T11:00:28.637Z,2.60
2023-01-19T11:03:01.175Z,2.80
2023-01-19T11:05:34.077Z,2.80
2023-01-19T11:08:21.475Z,2.80
2023-01-19T11:10:58.437Z,2.80
2023-01-19T11:13:30.681Z,2.80
2023-01-19T11:16:05.452Z,2.90
2023-01-19T11:18:38.191Z,2.90
2023-01-19T11:21:11.647Z,2.90
2023-01-19T11:23:46.100Z,2.90
2023-01-19T11:26:29.045Z,3.00
2023-01-19T11:29:01.750Z,3.00
2023-01-19T11:31:34.659Z,3.10
2023-01-19T11:34:22.379Z,3.20
2023-01-19T11:36:58.839Z,3.20
2023-01-19T11:39:32.068Z,3.20
2023-01-19T11:42:06.550Z,3.30
2023-01-19T11:44:42.875Z,3.30
2023-01-19T11:47:17.067Z,3.30
2023-01-19T11:49:51.095Z,3.40
2023-01-19T11:52:26.223Z,3.40
2023-01-19T11:55:01.015Z,3.30
2023-01-19T11:57:35.438Z,3.30
2023-01-19T12:00:17.711Z,3.30
2023-01-19T12:02:50.615Z,3.30
2023-01-19T12:05:22.755Z,3.40
2023-01-19T12:07:54.898Z,3.50
2023-01-19T12:10:29.036Z,3.60
2023-01-19T12:13:03.689Z,3.60
2023-01-19T12:15:36.975Z,3.60
2023-01-19T12:18:12.544Z,3.60
2023-01-19T12:20:46.434Z,3.50
2023-01-19T12:23:24.311Z,3.50
2023-01-19T12:26:08.576Z,3.50
2023-01-19T12:28:44.542Z,3.50
2023-01-19T12:31:17.661Z,3.50
2023-01-19T12:33:49.927Z,3.40
2023-01-19T12:36:37.424Z,3.40
2023-01-19T12:39:14.365Z,3.40
2023-01-19T12:41:47.228Z,3.40
2023-01-19T12:44:30.561Z,3.40
2023-01-19T12:47:20.047Z,3.40
2023-01-19T12:49:53.784Z,3.40
2023-01-19T12:52:28.288Z,3.40
2023-01-19T12:55:01.526Z,3.50
2023-01-19T12:57:35.151Z,3.40
2023-01-19T13:00:27.689Z,3.40
2023-01-19T13:02:59.893Z,3.40
2023-01-19T13:05:58.875Z,3.40
2023-01-19T13:08:45.490Z,3.40
2023-01-19T13:11:19.680Z,3.50
2023-01-19T13:14:21.424Z,3.40
2023-01-19T13:16:59.883Z,3.40
2023-01-19T13:19:49.793Z,3.50
2023-01-19T13:22:36.605Z,3.40
2023-01-19T13:25:11.321Z,3.40
2023-01-19T13:27:43.175Z,3.40
2023-01-19T13:30:16.218Z,3.40
2023-01-19T13:32:50.680Z,3.40
2023-01-19T13:35:22.861Z,3.40
2023-01-19T13:37:54.850Z,3.40
2023-01-19T13:40:32.141Z,3.50
2023-01-19T13:43:06.643Z,3.50
2023-01-19T13:45:40.088Z,3.50
2023-01-19T13:48:22.969Z,3.50
2023-01-19T13:50:58.963Z,3.50
2023-01-19T13:53:31.371Z,3.50
2023-01-19T13:56:10.616Z,3.50
2023-01-19T13:58:42.496Z,3.50
2023-01-19T14:01:21.558Z,3.50
2023-01-19T14:03:56.243Z,3.50
2023-01-19T14:06:33.082Z,3.50
2023-01-19T14:09:08.667Z,3.60
2023-01-19T14:11:40.655Z,3.60
2023-01-19T14:14:25.869Z,3.60
2023-01-19T14:16:57.750Z,3.60
2023-01-19T14:19:46.968Z,3.60
2023-01-19T14:22:18.800Z,3.60
2023-01-19T14:24:50.655Z,3.70
2023-01-19T14:27:24.192Z,3.60
2023-01-19T14:30:13.935Z,3.70
2023-01-19T14:32:47.620Z,3.70
2023-01-19T14:35:25.925Z,3.70
2023-01-19T14:37:57.780Z,3.70
2023-01-19T14:40:29.677Z,3.70
2023-01-19T14:43:04.288Z,3.70
2023-01-19T14:45:37.155Z,3.80
2023-01-19T14:48:16.360Z,3.80
2023-01-19T14:51:03.177Z,3.90
2023-01-19T14:53:36.639Z,3.90
2023-01-19T14:56:08.680Z,3.90
2023-01-19T14:58:40.465Z,3.90
2023-01-19T15:01:12.372Z,3.90
2023-01-19T15:03:45.641Z,3.90
2023-01-19T15:06:20.698Z,3.90
2023-01-19T15:08:53.612Z,3.90
2023-01-19T15:11:27.305Z,3.80
2023-01-19T15:13:59.256Z,3.80
2023-01-19T15:16:34.472Z,3.80
2023-01-19T15:19:06.813Z,3.80
2023-01-19T15:21:46.350Z,3.70
2023-01-19T15:24:18.311Z,3.70
2023-01-19T15:26:50.171Z,3.60
2023-01-19T15:29:23.374Z,3.60
2023-01-19T15:31:55.246Z,3.60
2023-01-19T15:34:27.046Z,3.60
2023-01-19T15:37:01.373Z,3.50
2023-01-19T15:39:33.219Z,3.50
2023-01-19T15:42:06.684Z,3.50
2023-01-19T15:44:38.549Z,3.50
2023-01-19T15:47:10.943Z,3.50
2023-01-19T15:49:42.777Z,3.50
2023-01-19T15:52:17.242Z,3.50
2023-01-19T15:54:49.027Z,3.50
2023-01-19T15:57:20.787Z,3.50
2023-01-19T15:59:53.425Z,3.40
2023-01-19T16:02:25.357Z,3.40
2023-01-19T16:04:57.292Z,3.40
2023-01-19T16:07:32.606Z,3.40
2023-01-19T16:10:06.415Z,3.40
2023-01-19T16:12:38.399Z,3.40
2023-01-19T16:15:11.450Z,3.40
2023-01-19T16:17:43.576Z,3.40
2023-01-19T16:20:15.950Z,3.40
2023-01-19T16:22:50.543Z,3.40
2023-01-19T16:25:23.571Z,3.40
2023-01-19T16:27:55.354Z,3.40
2023-01-19T16:30:27.151Z,3.40
2023-01-19T16:32:58.920Z,3.30
2023-01-19T16:35:30.790Z,3.40
2023-01-19T16:38:05.133Z,3.60
2023-01-19T16:40:36.943Z,3.80
2023-01-19T16:43:08.709Z,4.10
2023-01-19T16:45:55.998Z,4.40
2023-01-19T16:48:28.279Z,4.70
2023-01-19T16:51:01.194Z,5.00
2023-01-19T16:53:35.621Z,5.20
2023-01-19T16:56:08.253Z,5.40
2023-01-19T16:58:40.494Z,5.50
2023-01-19T17:01:13.403Z,5.70
2023-01-19T17:03:45.474Z,5.80
2023-01-19T17:06:18.337Z,5.90
2023-01-19T17:08:53.153Z,6.00
2023-01-19T17:11:25.634Z,6.10
2023-01-19T17:14:00.229Z,6.20
2023-01-19T17:16:32.983Z,6.30
2023-01-19T17:19:06.473Z,6.30
2023-01-19T17:21:38.239Z,6.40
2023-01-19T17:24:12.678Z,6.40
2023-01-19T17:26:46.031Z,6.40
2023-01-19T17:29:18.053Z,6.40
2023-01-19T17:31:49.983Z,6.40
2023-01-19T17:34:21.755Z,6.40
2023-01-19T17:36:54.244Z,6.40
2023-01-19T17:39:28.650Z,6.50
2023-01-19T17:42:00.431Z,6.50
2023-01-19T17:44:32.175Z,6.60
2023-01-19T17:47:03.963Z,6.60
2023-01-19T17:49:37.141Z,6.70
2023-01-19T17:52:08.958Z,6.80
2023-01-19T17:54:43.382Z,6.80
2023-01-19T17:57:15.172Z,6.90
2023-01-19T17:59:47.783Z,6.90
2023-01-19T18:02:24.399Z,7.00
2023-01-19T18:04:56.396Z,7.00
2023-01-19T18:10:03.566Z,7.00
2023-01-19T18:12:35.720Z,7.10
2023-01-19T18:15:08.757Z,7.20
2023-01-19T18:17:40.546Z,7.30
2023-01-19T18:20:12.741Z,7.50
2023-01-19T18:22:44.710Z,7.50
2023-01-19T18:25:19.167Z,7.50
2023-01-19T18:27:50.990Z,7.60
2023-01-19T18:30:22.881Z,7.70
2023-01-19T18:32:54.626Z,7.80
2023-01-19T18:35:26.718Z,7.90
2023-01-19T18:37:58.907Z,8.00
2023-01-19T18:40:33.279Z,8.10
2023-01-19T18:43:05.046Z,8.10
2023-01-19T18:45:38.231Z,8.20
2023-01-19T18:48:10.000Z,8.20
2023-01-19T18:50:42.815Z,8.30
2023-01-19T18:53:14.578Z,8.30
2023-01-19T18:55:53.188Z,8.30
2023-01-19T18:58:25.536Z,8.30
2023-01-19T19:00:57.835Z,8.30
2023-01-19T19:03:29.926Z,8.20
2023-01-19T19:06:02.168Z,8.20
2023-01-19T19:08:33.997Z,8.10
2023-01-19T19:11:09.173Z,8.00
2023-01-19T19:13:41.142Z,8.00
2023-01-19T19:16:13.313Z,7.90
2023-01-19T19:18:45.195Z,7.90
2023-01-19T19:21:17.984Z,7.90
2023-01-19T19:23:56.235Z,7.80
2023-01-19T19:26:31.302Z,7.80
2023-01-19T19:29:08.976Z,7.70
2023-01-19T19:31:41.087Z,7.60
2023-01-19T19:34:12.960Z,7.60
2023-01-19T19:36:44.736Z,7.50
2023-01-19T19:39:16.776Z,7.20
2023-01-19T19:41:51.123Z,6.90
2023-01-19T19:44:23.191Z,6.60
2023-01-19T19:46:54.932Z,6.30
2023-01-19T19:49:27.259Z,6.10
2023-01-19T19:51:59.039Z,5.90
2023-01-19T19:54:30.813Z,5.80
2023-01-19T19:57:05.158Z,5.90
2023-01-19T19:59:36.974Z,6.00
2023-01-19T20:02:09.832Z,6.20
2023-01-19T20:04:41.688Z,6.30
2023-01-19T20:07:13.485Z,6.40
2023-01-19T20:09:45.618Z,6.50
2023-01-19T20:12:20.042Z,6.50
2023-01-19T20:14:52.181Z,6.60
2023-01-19T20:17:24.776Z,6.60
2023-01-19T20:19:56.894Z,6.70
2023-01-19T20:22:29.125Z,6.70
2023-01-19T20:25:01.080Z,6.80
2023-01-19T20:27:36.749Z,6.80
2023-01-19T20:30:09.259Z,7.00
2023-01-19T20:32:43.936Z,7.10
2023-01-19T20:35:15.874Z,7.20
2023-01-19T20:37:47.880Z,7.30
2023-01-19T20:40:27.371Z,7.30
2023-01-19T20:43:04.559Z,7.40
2023-01-19T20:45:36.337Z,7.50
2023-01-19T20:48:08.181Z,7.60
2023-01-19T20:50:39.948Z,7.70
2023-01-19T20:53:11.832Z,7.70
2023-01-19T20:55:43.618Z,7.80
2023-01-19T20:58:18.109Z,7.80
2023-01-19T21:00:50.068Z,7.80
2023-01-19T21:03:21.863Z,7.90
2023-01-19T21:05:53.613Z,7.90
2023-01-19T21:08:25.664Z,8.00
2023-01-19T21:10:57.463Z,8.00
2023-01-19T21:13:32.139Z,8.10
2023-01-19T21:16:04.375Z,8.10
2023-01-19T21:18:36.173Z,8.10
2023-01-19T21:21:12.690Z,8.20
2023-01-19T21:23:55.509Z,8.20
2023-01-19T21:26:29.944Z,8.20
2023-01-19T21:29:04.528Z,8.20
2023-01-19T21:31:36.300Z,8.20
2023-01-19T21:34:08.741Z,8.20
2023-01-19T21:36:40.548Z,8.20
2023-01-19T21:39:12.343Z,8.20
2023-01-19T21:41:45.186Z,8.20
2023-01-19T21:44:19.623Z,8.20
2023-01-19T21:46:51.531Z,8.10
2023-01-19T21:49:23.439Z,8.10
2023-01-19T21:51:55.450Z,8.10
2023-01-19T21:54:27.462Z,8.20
2023-01-19T21:57:01.138Z,8.10
2023-01-19T21:59:35.487Z,8.10
2023-01-19T22:02:09.554Z,8.10
2023-01-19T22:04:41.416Z,8.10
2023-01-19T22:07:13.242Z,8.10
2023-01-19T22:09:45.004Z,8.10
2023-01-19T22:12:16.752Z,8.10
2023-01-19T22:14:51.099Z,8.10
2023-01-19T22:17:22.844Z,8.20
2023-01-19T22:19:54.625Z,8.20
2023-01-19T22:22:26.400Z,8.20
2023-01-19T22:24:58.277Z,8.20
2023-01-19T22:27:33.024Z,8.10
2023-01-19T22:30:08.294Z,8.10
2023-01-19T22:32:40.084Z,8.10
2023-01-19T22:35:12.369Z,8.00
2023-01-19T22:37:44.305Z,8.00
2023-01-19T22:40:16.498Z,8.00
2023-01-19T22:42:48.470Z,8.00
2023-01-19T22:45:22.900Z,8.10
2023-01-19T22:47:54.683Z,8.10
2023-01-19T22:50:26.527Z,8.10
2023-01-19T22:52:58.652Z,8.20
2023-01-19T22:55:30.729Z,8.20
2023-01-19T22:58:02.606Z,8.30
2023-01-19T23:00:36.928Z,8.30
2023-01-19T23:03:08.702Z,8.30
2023-01-19T23:05:40.507Z,8.30
2023-01-19T23:08:12.305Z,8.40
2023-01-19T23:11:03.512Z,8.30
2023-01-19T23:13:35.522Z,8.40
2023-01-19T23:16:11.469Z,8.40
2023-01-19T23:18:44.509Z,8.40
2023-01-19T23:21:18.731Z,8.30
2023-01-19T23:23:52.855Z,8.30
2023-01-19T23:26:25.118Z,8.10
2023-01-19T23:28:58.345Z,8.20
2023-01-19T23:31:33.440Z,8.00
2023-01-19T23:34:06.387Z,7.70
2023-01-19T23:36:39.549Z,7.30
2023-01-19T23:39:13.678Z,6.90
2023-01-19T23:41:45.842Z,6.60
2023-01-19T23:44:17.684Z,6.30
2023-01-19T23:46:58.381Z,6.10
2023-01-19T23:49:30.410Z,5.80
2023-01-19T23:52:02.217Z,5.70
2023-01-19T23:54:36.574Z,5.50
2023-01-19T23:57:08.366Z,5.30
2023-01-19T23:59:42.580Z,5.20
